createdAt,value
2019-05-21T00:00:00.897Z,36.40
2019-05-21T00:01:00.826Z,37.20
2019-05-21T00:02:00.775Z,37.80
2019-05-21T00:03:00.723Z,39.50
2019-05-21T00:04:00.671Z,42.40
2019-05-21T00:05:00.653Z,42.50
2019-05-21T00:06:00.572Z,44.60
2019-05-21T00:07:00.563Z,46.00
2019-05-21T00:08:00.482Z,47.20
2019-05-21T00:09:00.427Z,45.80
2019-05-21T00:10:00.395Z,48.30
2019-05-21T00:11:00.337Z,48.80
2019-05-21T00:12:00.288Z,50.70
2019-05-21T00:13:00.221Z,49.50
2019-05-21T00:14:00.173Z,49.70
2019-05-21T00:15:00.142Z,51.00
2019-05-21T00:16:00.071Z,50.20
2019-05-21T00:17:00.025Z,51.00
2019-05-21T00:17:59.984Z,51.20
2019-05-21T00:18:59.923Z,51.80
2019-05-21T00:19:59.865Z,53.50
2019-05-21T00:20:59.847Z,54.00
2019-05-21T00:21:59.815Z,53.80
2019-05-21T00:22:59.720Z,53.60
2019-05-21T00:23:59.668Z,52.90
2019-05-21T00:24:59.843Z,54.70
2019-05-21T00:25:59.593Z,54.80
2019-05-21T00:26:59.521Z,54.60
2019-05-21T00:27:59.466Z,54.40
2019-05-21T00:28:59.416Z,56.10
2019-05-21T00:29:59.364Z,55.10
2019-05-21T00:30:59.352Z,56.00
2019-05-21T00:31:59.265Z,55.60
2019-05-21T00:32:59.218Z,53.40
2019-05-21T00:33:59.162Z,54.60
2019-05-21T00:34:59.115Z,53.00
2019-05-21T00:35:59.089Z,53.60
2019-05-21T00:36:59.118Z,54.10
2019-05-21T00:37:58.963Z,54.70
2019-05-21T00:38:58.913Z,56.40
2019-05-21T00:39:58.858Z,55.30
2019-05-21T00:40:58.838Z,55.70
2019-05-21T00:41:58.764Z,56.20
2019-05-21T00:42:58.704Z,57.40
2019-05-21T00:43:58.660Z,56.50
2019-05-21T00:44:58.606Z,57.70
2019-05-21T00:45:58.587Z,57.40
2019-05-21T00:46:58.511Z,57.60
2019-05-21T00:47:58.455Z,56.00
2019-05-21T00:48:58.399Z,56.80
2019-05-21T00:49:58.357Z,54.10
2019-05-21T00:50:58.329Z,56.70
2019-05-21T00:52:07.020Z,56.40
2019-05-21T00:52:58.203Z,54.50
2019-05-21T00:53:58.179Z,55.40
2019-05-21T00:54:58.113Z,53.60
2019-05-21T00:55:58.080Z,54.10
2019-05-21T00:56:57.997Z,53.50
2019-05-21T00:57:57.953Z,53.10
2019-05-21T00:58:57.902Z,54.20
2019-05-21T00:59:57.850Z,52.00
2019-05-21T01:00:57.823Z,50.70
2019-05-21T01:01:57.748Z,52.30
2019-05-21T01:02:57.703Z,53.20
2019-05-21T01:03:57.652Z,52.10
2019-05-21T01:05:00.902Z,50.80
2019-05-21T01:05:57.590Z,51.40
2019-05-21T01:06:57.494Z,50.70
2019-05-21T01:07:57.448Z,50.20
2019-05-21T01:08:57.405Z,50.00
2019-05-21T01:09:57.349Z,50.70
2019-05-21T01:10:57.294Z,49.20
2019-05-21T01:11:57.272Z,49.10
2019-05-21T01:12:57.199Z,49.60
2019-05-21T01:13:57.148Z,48.80
2019-05-21T01:14:57.095Z,47.00
2019-05-21T01:15:57.044Z,48.00
2019-05-21T01:16:57.022Z,46.60
2019-05-21T01:17:56.947Z,47.30
2019-05-21T01:18:56.892Z,47.50
2019-05-21T01:19:56.838Z,48.00
2019-05-21T01:20:56.788Z,48.60
2019-05-21T01:21:56.768Z,46.50
2019-05-21T01:22:56.689Z,47.90
2019-05-21T01:23:56.637Z,48.20
2019-05-21T01:24:56.588Z,46.90
2019-05-21T01:25:56.536Z,46.10
2019-05-21T01:26:56.512Z,45.40
2019-05-21T01:27:56.437Z,47.60
2019-05-21T01:28:56.385Z,48.30
2019-05-21T01:29:56.338Z,46.60
2019-05-21T01:30:56.284Z,49.00
2019-05-21T01:31:56.255Z,48.60
2019-05-21T01:32:56.183Z,48.40
2019-05-21T01:33:56.133Z,48.50
2019-05-21T01:34:56.081Z,49.00
2019-05-21T01:35:56.026Z,52.50
2019-05-21T01:36:56.001Z,51.00
2019-05-21T01:37:55.926Z,53.40
2019-05-21T01:38:55.875Z,52.00
2019-05-21T01:39:55.827Z,51.20
2019-05-21T01:40:55.781Z,48.70
2019-05-21T01:41:55.752Z,50.40
2019-05-21T01:42:55.677Z,49.30
2019-05-21T01:43:55.626Z,49.40
2019-05-21T01:44:55.572Z,47.30
2019-05-21T01:45:55.523Z,47.40
2019-05-21T01:46:55.502Z,49.20
2019-05-21T01:47:55.420Z,48.10
2019-05-21T01:48:55.369Z,49.60
2019-05-21T01:49:55.322Z,46.30
2019-05-21T01:50:55.272Z,41.90
2019-05-21T01:51:55.247Z,41.60
2019-05-21T01:52:55.169Z,37.00
2019-05-21T01:53:55.117Z,37.00
2019-05-21T01:54:55.067Z,39.40
2019-05-21T01:55:55.018Z,35.20
2019-05-21T01:56:55.041Z,36.50
2019-05-21T01:57:54.917Z,37.20
2019-05-21T01:58:54.868Z,35.40
2019-05-21T01:59:54.812Z,34.80
2019-05-21T02:00:54.761Z,36.80
2019-05-21T02:01:54.742Z,36.10
2019-05-21T02:02:54.660Z,33.80
2019-05-21T02:03:54.608Z,36.70
2019-05-21T02:04:54.556Z,34.90
2019-05-21T02:05:54.503Z,35.10
2019-05-21T02:06:54.481Z,34.40
2019-05-21T02:07:54.406Z,35.30
2019-05-21T02:08:54.373Z,35.90
2019-05-21T02:09:54.302Z,35.10
2019-05-21T02:10:54.251Z,35.20
2019-05-21T02:11:54.203Z,34.90
2019-05-21T02:12:54.170Z,33.30
2019-05-21T02:13:54.102Z,34.20
2019-05-21T02:14:54.047Z,34.70
2019-05-21T02:15:53.998Z,34.70
2019-05-21T02:16:53.946Z,36.50
2019-05-21T02:17:53.922Z,36.10
2019-05-21T02:18:53.844Z,34.80
2019-05-21T02:19:53.797Z,35.30
2019-05-21T02:20:53.745Z,36.80
2019-05-21T02:21:53.691Z,35.70
2019-05-21T02:22:53.665Z,37.30
2019-05-21T02:23:53.588Z,37.10
2019-05-21T02:24:53.544Z,36.90
2019-05-21T02:25:53.489Z,38.10
2019-05-21T02:26:53.437Z,35.60
2019-05-21T02:27:53.410Z,36.80
2019-05-21T02:28:53.334Z,38.20
2019-05-21T02:29:53.286Z,37.50
2019-05-21T02:30:56.392Z,37.70
2019-05-21T02:31:53.187Z,36.40
2019-05-21T02:32:53.164Z,38.50
2019-05-21T02:33:53.090Z,37.60
2019-05-21T02:34:53.031Z,37.10
2019-05-21T02:35:54.868Z,37.30
2019-05-21T02:36:52.934Z,37.80
2019-05-21T02:37:52.900Z,39.20
2019-05-21T02:38:52.826Z,38.10
2019-05-21T02:39:52.776Z,39.50
2019-05-21T02:40:52.727Z,39.60
2019-05-21T02:41:52.683Z,40.60
2019-05-21T02:42:52.658Z,40.70
2019-05-21T02:43:52.579Z,40.20
2019-05-21T02:44:54.234Z,41.70
2019-05-21T02:45:52.475Z,41.00
2019-05-21T02:46:52.420Z,42.80
2019-05-21T02:47:52.403Z,40.10
2019-05-21T02:48:52.316Z,41.10
2019-05-21T02:49:52.266Z,43.30
2019-05-21T02:50:52.220Z,41.60
2019-05-21T02:51:52.162Z,40.50
2019-05-21T02:52:52.134Z,42.50
2019-05-21T02:53:52.064Z,40.70
2019-05-21T02:54:52.012Z,41.40
2019-05-21T02:55:51.961Z,43.60
2019-05-21T02:56:51.922Z,43.20
2019-05-21T02:57:51.883Z,42.70
2019-05-21T02:58:51.806Z,44.40
2019-05-21T02:59:51.755Z,44.30
2019-05-21T03:00:51.703Z,40.90
2019-05-21T03:01:51.661Z,43.10
2019-05-21T03:02:51.637Z,44.10
2019-05-21T03:03:51.553Z,44.60
2019-05-21T03:04:51.505Z,45.90
2019-05-21T03:05:51.454Z,45.30
2019-05-21T03:06:51.404Z,44.20
2019-05-21T03:07:51.343Z,43.50
2019-05-21T03:08:51.320Z,44.20
2019-05-21T03:09:51.262Z,42.90
2019-05-21T03:10:51.199Z,45.00
2019-05-21T03:11:51.144Z,44.00
2019-05-21T03:12:51.095Z,44.10
2019-05-21T03:13:51.065Z,43.90
2019-05-21T03:14:50.992Z,45.10
2019-05-21T03:15:50.946Z,46.40
2019-05-21T03:16:50.886Z,45.50
2019-05-21T03:17:50.837Z,44.90
2019-05-21T03:18:50.814Z,45.30
2019-05-21T03:19:50.735Z,45.90
2019-05-21T03:20:50.688Z,43.20
2019-05-21T03:21:50.643Z,45.50
2019-05-21T03:22:50.581Z,43.00
2019-05-21T03:23:50.563Z,44.70
2019-05-21T03:24:50.483Z,46.40
2019-05-21T03:25:50.443Z,44.70
2019-05-21T03:26:50.379Z,45.30
2019-05-21T03:27:50.332Z,44.00
2019-05-21T03:28:50.302Z,45.40
2019-05-21T03:29:50.230Z,44.00
2019-05-21T03:30:50.176Z,44.90
2019-05-21T03:31:50.129Z,45.90
2019-05-21T03:32:50.080Z,45.80
2019-05-21T03:33:50.066Z,45.90
2019-05-21T03:34:49.976Z,45.50
2019-05-21T03:35:49.922Z,45.70
2019-05-21T03:36:49.874Z,46.20
2019-05-21T03:37:49.819Z,44.20
2019-05-21T03:38:49.893Z,45.20
2019-05-21T03:39:49.717Z,43.00
2019-05-21T03:40:49.668Z,43.80
2019-05-21T03:41:49.626Z,44.30
2019-05-21T03:42:49.565Z,42.70
2019-05-21T03:43:49.551Z,43.70
2019-05-21T03:44:59.570Z,43.80
2019-05-21T03:45:49.413Z,43.90
2019-05-21T03:46:49.356Z,43.20
2019-05-21T03:47:49.309Z,42.20
2019-05-21T03:48:49.280Z,43.60
2019-05-21T03:49:49.206Z,43.80
2019-05-21T03:50:49.164Z,43.60
2019-05-21T03:51:49.111Z,43.60
2019-05-21T03:52:49.053Z,42.40
2019-05-21T03:53:49.029Z,43.80
2019-05-21T03:54:48.952Z,45.30
2019-05-21T03:55:48.904Z,44.40
2019-05-21T03:56:48.862Z,44.40
2019-05-21T03:57:48.793Z,44.60
2019-05-21T03:58:48.771Z,44.10
2019-05-21T03:59:48.700Z,44.50
2019-05-21T04:00:48.652Z,45.60
2019-05-21T04:01:48.590Z,45.90
2019-05-21T04:02:48.543Z,46.00
2019-05-21T04:03:48.515Z,45.80
2019-05-21T04:04:48.437Z,47.30
2019-05-21T04:05:48.396Z,46.00
2019-05-21T04:06:52.109Z,44.40
2019-05-21T04:07:48.287Z,45.50
2019-05-21T04:08:48.267Z,46.20
2019-05-21T04:09:48.185Z,44.30
2019-05-21T04:10:48.175Z,48.90
2019-05-21T04:11:48.085Z,47.00
2019-05-21T04:12:48.055Z,49.80
2019-05-21T04:13:47.985Z,49.20
2019-05-21T04:14:47.956Z,48.10
2019-05-21T04:15:47.875Z,50.20
2019-05-21T04:16:47.827Z,48.80
2019-05-21T04:17:47.776Z,52.70
2019-05-21T04:18:47.727Z,51.30
2019-05-21T04:19:47.703Z,52.10
2019-05-21T04:20:47.625Z,51.30
2019-05-21T04:21:47.576Z,52.60
2019-05-21T04:22:47.522Z,53.90
2019-05-21T04:23:47.468Z,52.60
2019-05-21T04:24:47.465Z,51.80
2019-05-21T04:25:47.385Z,52.90
2019-05-21T04:26:47.319Z,54.20
2019-05-21T04:27:47.268Z,53.60
2019-05-21T04:28:47.218Z,56.70
2019-05-21T04:29:47.192Z,52.10
2019-05-21T04:30:47.112Z,52.90
2019-05-21T04:31:47.069Z,51.00
2019-05-21T04:32:47.016Z,54.70
2019-05-21T04:33:46.959Z,56.80
2019-05-21T04:34:46.960Z,54.80
2019-05-21T04:35:46.864Z,56.50
2019-05-21T04:36:46.812Z,58.30
2019-05-21T04:37:46.754Z,58.90
2019-05-21T04:38:46.703Z,63.20
2019-05-21T04:39:46.677Z,63.00
2019-05-21T04:40:46.619Z,64.40
2019-05-21T04:41:46.567Z,69.90
2019-05-21T04:42:46.504Z,65.30
2019-05-21T04:43:46.471Z,67.80
2019-05-21T04:44:46.420Z,65.90
2019-05-21T04:45:46.344Z,61.10
2019-05-21T04:46:46.294Z,67.80
2019-05-21T04:47:46.244Z,65.90
2019-05-21T04:48:46.196Z,67.40
2019-05-21T04:49:46.163Z,68.30
2019-05-21T04:50:46.093Z,69.80
2019-05-21T04:51:46.034Z,65.20
2019-05-21T04:52:45.985Z,66.20
2019-05-21T04:53:45.945Z,65.80
2019-05-21T04:54:45.910Z,69.20
2019-05-21T04:55:45.832Z,68.00
2019-05-21T04:56:45.784Z,73.20
2019-05-21T04:57:45.731Z,74.20
2019-05-21T04:58:45.678Z,70.00
2019-05-21T04:59:45.657Z,68.80
2019-05-21T05:00:45.579Z,69.90
2019-05-21T05:01:45.528Z,74.80
2019-05-21T05:02:45.480Z,74.90
2019-05-21T05:03:45.431Z,78.80
2019-05-21T05:04:45.426Z,74.40
2019-05-21T05:05:45.319Z,78.10
2019-05-21T05:06:45.273Z,80.50
2019-05-21T05:07:45.219Z,71.90
2019-05-21T05:08:45.167Z,77.60
2019-05-21T05:09:45.165Z,71.80
2019-05-21T05:10:45.075Z,76.50
2019-05-21T05:11:45.013Z,73.40
2019-05-21T05:12:44.965Z,70.70
2019-05-21T05:13:44.916Z,69.20
2019-05-21T05:14:44.864Z,75.80
2019-05-21T05:15:44.836Z,76.40
2019-05-21T05:16:44.758Z,77.50
2019-05-21T05:17:44.710Z,72.80
2019-05-21T05:18:44.663Z,75.20
2019-05-21T05:19:44.609Z,72.70
2019-05-21T05:20:44.583Z,74.10
2019-05-21T05:21:44.565Z,75.20
2019-05-21T05:22:44.459Z,74.30
2019-05-21T05:23:44.405Z,77.20
2019-05-21T05:24:44.352Z,77.10
2019-05-21T05:25:44.326Z,75.60
2019-05-21T05:26:44.264Z,74.30
2019-05-21T05:27:44.204Z,74.50
2019-05-21T05:28:44.151Z,75.40
2019-05-21T05:29:44.107Z,73.10
2019-05-21T05:30:44.073Z,74.60
2019-05-21T05:31:43.992Z,77.00
2019-05-21T05:32:43.972Z,73.50
2019-05-21T05:33:43.896Z,71.90
2019-05-21T05:34:43.843Z,73.20
2019-05-21T05:35:43.821Z,74.20
2019-05-21T05:36:43.742Z,72.10
2019-05-21T05:37:48.313Z,72.00
2019-05-21T05:38:43.638Z,72.70
2019-05-21T05:39:43.587Z,75.70
2019-05-21T05:40:43.558Z,70.50
2019-05-21T05:41:43.488Z,74.30
2019-05-21T05:42:43.453Z,74.00
2019-05-21T05:43:43.383Z,71.50
2019-05-21T05:44:43.334Z,72.80
2019-05-21T05:45:43.309Z,70.30
2019-05-21T05:46:43.229Z,74.00
2019-05-21T05:47:43.190Z,72.40
2019-05-21T05:48:43.136Z,72.10
2019-05-21T05:49:43.091Z,69.40
2019-05-21T05:50:43.067Z,71.80
2019-05-21T05:51:42.971Z,70.40
2019-05-21T05:52:42.928Z,74.80
2019-05-21T05:53:42.876Z,70.30
2019-05-21T05:54:42.826Z,71.40
2019-05-21T05:55:42.792Z,72.80
2019-05-21T05:56:42.729Z,68.70
2019-05-21T05:57:42.669Z,70.40
2019-05-21T05:58:42.649Z,68.90
2019-05-21T05:59:42.570Z,68.00
2019-05-21T06:00:42.543Z,71.50
2019-05-21T06:01:42.462Z,69.40
2019-05-21T06:02:42.425Z,72.70
2019-05-21T06:03:42.370Z,73.30
2019-05-21T06:04:42.314Z,67.60
2019-05-21T06:05:42.290Z,69.10
2019-05-21T06:06:42.211Z,70.60
2019-05-21T06:07:42.160Z,64.20
2019-05-21T06:08:42.109Z,66.70
2019-05-21T06:09:42.065Z,67.10
2019-05-21T06:10:42.035Z,67.90
2019-05-21T06:11:41.955Z,64.80
2019-05-21T06:12:41.911Z,65.60
2019-05-21T06:13:41.857Z,61.80
2019-05-21T06:14:41.810Z,60.50
2019-05-21T06:15:41.783Z,60.90
2019-05-21T06:16:41.711Z,62.30
2019-05-21T06:17:41.653Z,62.70
2019-05-21T06:18:41.599Z,63.30
2019-05-21T06:19:41.552Z,61.30
2019-05-21T06:20:41.526Z,58.30
2019-05-21T06:21:41.452Z,58.20
2019-05-21T06:22:41.398Z,60.30
2019-05-21T06:23:41.347Z,62.00
2019-05-21T06:24:41.295Z,62.40
2019-05-21T06:25:41.271Z,61.00
2019-05-21T06:26:41.196Z,61.10
2019-05-21T06:27:41.170Z,61.20
2019-05-21T06:28:41.092Z,61.20
2019-05-21T06:29:41.043Z,57.10
2019-05-21T06:30:40.994Z,61.50
2019-05-21T06:31:40.963Z,57.90
2019-05-21T06:32:40.889Z,59.10
2019-05-21T06:33:40.836Z,58.20
2019-05-21T06:34:40.788Z,60.20
2019-05-21T06:35:40.742Z,59.90
2019-05-21T06:36:40.713Z,58.90
2019-05-21T06:37:40.634Z,58.10
2019-05-21T06:38:40.587Z,56.60
2019-05-21T06:39:40.536Z,56.30
2019-05-21T06:40:40.480Z,59.00
2019-05-21T06:41:40.460Z,61.10
2019-05-21T06:42:40.385Z,61.20
2019-05-21T06:43:40.330Z,60.90
2019-05-21T06:44:40.283Z,59.80
2019-05-21T06:45:40.231Z,59.40
2019-05-21T06:46:40.203Z,59.20
2019-05-21T06:47:40.128Z,56.50
2019-05-21T06:48:40.079Z,56.10
2019-05-21T06:49:40.029Z,55.90
2019-05-21T06:50:39.975Z,57.10
2019-05-21T06:51:39.942Z,56.40
2019-05-21T06:52:39.871Z,57.60
2019-05-21T06:53:39.820Z,57.50
2019-05-21T06:54:39.779Z,57.10
2019-05-21T06:55:39.723Z,56.70
2019-05-21T06:56:39.695Z,55.80
2019-05-21T06:57:39.617Z,53.00
2019-05-21T06:58:39.609Z,51.90
2019-05-21T06:59:39.524Z,52.70
2019-05-21T07:00:39.508Z,54.30
2019-05-21T07:01:39.442Z,51.90
2019-05-21T07:02:39.367Z,52.20
2019-05-21T07:03:39.317Z,53.60
2019-05-21T07:04:39.287Z,52.90
2019-05-21T07:05:39.226Z,52.80
2019-05-21T07:06:39.189Z,51.80
2019-05-21T07:07:39.117Z,51.40
2019-05-21T07:08:39.066Z,52.80
2019-05-21T07:09:39.015Z,52.30
2019-05-21T07:10:38.965Z,51.60
2019-05-21T07:11:38.949Z,50.80
2019-05-21T07:12:38.860Z,51.50
2019-05-21T07:13:38.809Z,52.10
2019-05-21T07:14:38.782Z,52.20
2019-05-21T07:15:38.709Z,51.40
2019-05-21T07:16:38.683Z,51.80
2019-05-21T07:17:38.605Z,51.40
2019-05-21T07:18:41.360Z,50.00
2019-05-21T07:19:38.511Z,49.80
2019-05-21T07:20:38.472Z,48.10
2019-05-21T07:21:38.433Z,48.10
2019-05-21T07:22:38.376Z,45.80
2019-05-21T07:23:38.312Z,47.10
2019-05-21T07:24:38.253Z,45.70
2019-05-21T07:25:38.204Z,46.20
2019-05-21T07:26:38.181Z,46.80
2019-05-21T07:27:38.101Z,47.90
2019-05-21T07:28:38.050Z,47.20
2019-05-21T07:29:37.999Z,47.10
2019-05-21T07:30:37.951Z,44.10
2019-05-21T07:31:37.925Z,45.00
2019-05-21T07:32:37.894Z,42.40
2019-05-21T07:33:37.797Z,40.30
2019-05-21T07:34:37.748Z,42.00
2019-05-21T07:35:37.694Z,43.20
2019-05-21T07:36:37.676Z,39.20
2019-05-21T07:37:37.591Z,40.70
2019-05-21T07:38:52.035Z,41.30
2019-05-21T07:39:37.495Z,39.00
2019-05-21T07:40:37.441Z,36.80
2019-05-21T07:41:37.403Z,38.10
2019-05-21T07:42:37.370Z,39.60
2019-05-21T07:43:37.294Z,40.90
2019-05-21T07:44:37.242Z,39.80
2019-05-21T07:45:37.192Z,40.00
2019-05-21T07:46:39.424Z,39.00
2019-05-21T07:47:37.113Z,39.00
2019-05-21T07:48:37.039Z,39.40
2019-05-21T07:49:36.985Z,41.20
2019-05-21T07:50:36.957Z,39.70
2019-05-21T07:51:36.890Z,38.70
2019-05-21T07:52:36.857Z,38.10
2019-05-21T07:53:36.788Z,37.40
2019-05-21T07:54:36.737Z,39.80
2019-05-21T07:55:36.683Z,41.60
2019-05-21T07:56:36.644Z,41.80
2019-05-21T07:57:36.609Z,40.00
2019-05-21T07:58:36.532Z,38.00
2019-05-21T07:59:36.473Z,38.90
2019-05-21T08:00:36.430Z,39.80
2019-05-21T08:01:36.383Z,40.40
2019-05-21T08:02:36.355Z,41.40
2019-05-21T08:03:36.276Z,40.30
2019-05-21T08:04:36.224Z,40.10
2019-05-21T08:05:36.181Z,44.00
2019-05-21T08:06:36.121Z,42.00
2019-05-21T08:07:36.098Z,43.20
2019-05-21T08:08:36.020Z,40.80
2019-05-21T08:09:35.971Z,39.90
2019-05-21T08:10:35.923Z,41.40
2019-05-21T08:11:35.869Z,45.20
2019-05-21T08:12:39.335Z,45.40
2019-05-21T08:13:35.771Z,46.70
2019-05-21T08:14:35.748Z,46.30
2019-05-21T08:15:35.666Z,40.70
2019-05-21T08:16:35.627Z,39.40
2019-05-21T08:17:35.591Z,41.40
2019-05-21T08:18:35.517Z,40.20
2019-05-21T08:19:35.467Z,39.70
2019-05-21T08:20:35.414Z,41.90
2019-05-21T08:21:35.364Z,39.60
2019-05-21T08:22:35.337Z,37.70
2019-05-21T08:23:35.260Z,38.20
2019-05-21T08:24:35.221Z,36.90
2019-05-21T08:25:35.162Z,38.90
2019-05-21T08:26:35.110Z,37.00
2019-05-21T08:27:35.086Z,37.00
2019-05-21T08:28:35.007Z,37.70
2019-05-21T08:29:34.962Z,39.40
2019-05-21T08:30:34.913Z,39.40
2019-05-21T08:31:34.868Z,39.80
2019-05-21T08:32:34.825Z,38.20
2019-05-21T08:33:34.761Z,35.30
2019-05-21T08:34:34.711Z,35.70
2019-05-21T08:35:34.656Z,36.80
2019-05-21T08:36:34.607Z,34.70
2019-05-21T08:37:34.585Z,33.10
2019-05-21T08:38:34.506Z,33.60
2019-05-21T08:39:34.484Z,34.90
2019-05-21T08:40:34.409Z,34.30
2019-05-21T08:41:34.353Z,35.10
2019-05-21T08:42:34.336Z,36.50
2019-05-21T08:43:34.253Z,36.40
2019-05-21T08:44:34.208Z,36.20
2019-05-21T08:45:34.151Z,35.40
2019-05-21T08:46:34.110Z,34.70
2019-05-21T08:47:34.074Z,33.50
2019-05-21T08:48:33.999Z,33.10
2019-05-21T08:49:33.963Z,35.10
2019-05-21T08:50:33.903Z,34.40
2019-05-21T08:51:33.847Z,34.30
2019-05-21T08:52:33.822Z,34.80
2019-05-21T08:53:33.788Z,35.10
2019-05-21T08:54:33.699Z,35.20
2019-05-21T08:55:33.646Z,34.20
2019-05-21T08:56:33.597Z,33.80
2019-05-21T08:57:33.570Z,33.20
2019-05-21T08:58:33.498Z,33.10
2019-05-21T08:59:33.442Z,33.60
2019-05-21T09:00:33.399Z,34.10
2019-05-21T09:01:33.358Z,35.00
2019-05-21T09:02:33.319Z,34.50
2019-05-21T09:03:33.243Z,34.70
2019-05-21T09:04:46.000Z,34.20
2019-05-21T09:05:33.144Z,35.60
2019-05-21T09:06:33.093Z,37.00
2019-05-21T09:07:33.060Z,37.00
2019-05-21T09:08:32.997Z,37.50
2019-05-21T09:09:48.358Z,36.80
2019-05-21T09:10:32.891Z,35.80
2019-05-21T09:11:32.844Z,34.70
2019-05-21T09:12:32.816Z,33.90
2019-05-21T09:13:32.739Z,34.50
2019-05-21T09:14:32.689Z,34.60
2019-05-21T09:15:32.637Z,34.40
2019-05-21T09:16:32.585Z,33.90
2019-05-21T09:17:32.562Z,35.20
2019-05-21T09:18:32.487Z,35.30
2019-05-21T09:19:36.128Z,35.80
2019-05-21T09:20:32.384Z,35.70
2019-05-21T09:21:32.332Z,35.60
2019-05-21T09:22:32.325Z,36.20
2019-05-21T09:23:32.233Z,36.60
2019-05-21T09:24:32.182Z,35.90
2019-05-21T09:25:32.133Z,37.40
2019-05-21T09:26:32.087Z,35.70
2019-05-21T09:27:32.033Z,36.50
2019-05-21T09:28:32.001Z,38.30
2019-05-21T09:29:31.929Z,37.10
2019-05-21T09:30:31.891Z,36.40
2019-05-21T09:31:31.831Z,37.50
2019-05-21T09:32:31.776Z,35.00
2019-05-21T09:33:31.748Z,34.70
2019-05-21T09:34:47.548Z,35.40
2019-05-21T09:35:31.625Z,35.40
2019-05-21T09:36:31.586Z,35.30
2019-05-21T09:37:31.531Z,34.70
2019-05-21T09:38:31.508Z,36.20
2019-05-21T09:39:31.424Z,35.70
2019-05-21T09:40:31.373Z,34.60
2019-05-21T09:41:31.325Z,34.00
2019-05-21T09:42:31.279Z,33.20
2019-05-21T09:43:31.247Z,35.30
2019-05-21T09:44:31.167Z,34.10
2019-05-21T09:45:31.125Z,33.90
2019-05-21T09:46:31.072Z,32.40
2019-05-21T09:47:31.024Z,31.80
2019-05-21T09:48:30.992Z,31.00
2019-05-21T09:49:30.924Z,30.80
2019-05-21T09:50:30.870Z,30.30
2019-05-21T09:51:30.827Z,30.50
2019-05-21T09:52:30.764Z,31.70
2019-05-21T09:53:30.745Z,32.00
2019-05-21T09:54:30.653Z,30.70
2019-05-21T09:55:33.536Z,31.00
2019-05-21T09:56:30.566Z,30.80
2019-05-21T09:57:30.510Z,29.30
2019-05-21T09:58:30.492Z,30.10
2019-05-21T09:59:30.419Z,29.40
2019-05-21T10:00:30.365Z,28.70
2019-05-21T10:01:30.315Z,28.60
2019-05-21T10:02:30.269Z,28.70
2019-05-21T10:03:30.235Z,28.40
2019-05-21T10:04:30.217Z,28.70
2019-05-21T10:05:30.112Z,28.30
2019-05-21T10:06:30.067Z,28.00
2019-05-21T10:07:40.024Z,28.90
2019-05-21T10:08:29.985Z,29.30
2019-05-21T10:09:29.912Z,29.00
2019-05-21T10:10:29.862Z,28.40
2019-05-21T10:11:29.861Z,28.70
2019-05-21T10:12:29.760Z,29.30
2019-05-21T10:13:29.736Z,29.10
2019-05-21T10:14:33.447Z,27.30
2019-05-21T10:15:29.606Z,27.50
2019-05-21T10:16:29.558Z,28.20
2019-05-21T10:17:29.513Z,27.40
2019-05-21T10:18:29.473Z,26.60
2019-05-21T10:19:29.411Z,26.20
2019-05-21T10:20:29.357Z,25.80
2019-05-21T10:21:29.307Z,25.90
2019-05-21T10:22:29.261Z,25.50
2019-05-21T10:23:29.227Z,24.70
2019-05-21T10:24:29.158Z,24.70
2019-05-21T10:25:29.108Z,23.90
2019-05-21T10:26:29.057Z,23.40
2019-05-21T10:27:29.006Z,24.20
2019-05-21T10:28:28.994Z,24.70
2019-05-21T10:29:28.915Z,24.20
2019-05-21T10:30:28.849Z,22.80
2019-05-21T10:31:28.804Z,23.10
2019-05-21T10:32:28.750Z,23.60
2019-05-21T10:33:28.700Z,23.40
2019-05-21T10:34:28.674Z,24.30
2019-05-21T10:35:28.601Z,23.30
2019-05-21T10:36:28.546Z,23.60
2019-05-21T10:37:28.500Z,23.10
2019-05-21T10:38:28.451Z,22.80
2019-05-21T10:39:28.422Z,23.20
2019-05-21T10:40:28.350Z,22.40
2019-05-21T10:41:28.294Z,22.40
2019-05-21T10:42:28.244Z,21.90
2019-05-21T10:43:28.201Z,22.30
2019-05-21T10:44:28.169Z,22.50
2019-05-21T10:45:28.095Z,22.00
2019-05-21T10:46:28.041Z,22.80
2019-05-21T10:47:28.016Z,24.00
2019-05-21T10:48:27.944Z,22.40
2019-05-21T10:49:27.924Z,23.30
2019-05-21T10:50:27.844Z,23.50
2019-05-21T10:51:27.794Z,24.10
2019-05-21T10:52:27.734Z,24.20
2019-05-21T10:53:27.701Z,25.40
2019-05-21T10:54:27.658Z,25.10
2019-05-21T10:55:27.581Z,25.30
2019-05-21T10:56:27.536Z,26.10
2019-05-21T10:57:27.491Z,24.90
2019-05-21T10:58:27.442Z,26.50
2019-05-21T10:59:27.417Z,26.40
2019-05-21T11:00:27.331Z,25.80
2019-05-21T11:01:27.281Z,26.40
2019-05-21T11:02:27.228Z,27.40
2019-05-21T11:03:27.176Z,27.30
2019-05-21T11:04:27.158Z,28.10
2019-05-21T11:05:28.969Z,28.60
2019-05-21T11:06:27.022Z,27.30
2019-05-21T11:07:26.980Z,27.70
2019-05-21T11:08:26.926Z,27.80
2019-05-21T11:09:26.909Z,27.60
2019-05-21T11:10:26.821Z,29.30
2019-05-21T11:11:26.770Z,28.80
2019-05-21T11:12:26.725Z,28.70
2019-05-21T11:13:26.670Z,29.80
2019-05-21T11:14:26.650Z,30.30
2019-05-21T11:15:26.566Z,30.70
2019-05-21T11:16:26.514Z,30.20
2019-05-21T11:17:26.460Z,30.60
2019-05-21T11:18:26.415Z,30.10
2019-05-21T11:19:26.388Z,32.20
2019-05-21T11:20:26.314Z,31.40
2019-05-21T11:21:26.258Z,30.50
2019-05-21T11:22:26.235Z,30.60
2019-05-21T11:23:26.163Z,29.70
2019-05-21T11:24:26.138Z,32.70
2019-05-21T11:25:26.062Z,32.40
2019-05-21T11:26:26.010Z,33.70
2019-05-21T11:27:25.958Z,30.70
2019-05-21T11:28:25.907Z,29.90
2019-05-21T11:29:25.881Z,32.30
2019-05-21T11:30:25.807Z,32.10
2019-05-21T11:31:25.756Z,32.10
2019-05-21T11:32:25.710Z,32.50
2019-05-21T11:33:25.650Z,33.30
2019-05-21T11:34:25.603Z,33.10
2019-05-21T11:35:25.580Z,33.10
2019-05-21T11:36:25.501Z,33.70
2019-05-21T11:37:25.451Z,34.60
2019-05-21T11:38:39.105Z,32.40
2019-05-21T11:39:25.359Z,31.20
2019-05-21T11:40:25.328Z,31.70
2019-05-21T11:41:25.241Z,32.70
2019-05-21T11:42:25.193Z,32.90
2019-05-21T11:43:25.143Z,32.90
2019-05-21T11:44:25.081Z,32.90
2019-05-21T11:45:32.178Z,32.30
2019-05-21T11:46:24.987Z,29.30
2019-05-21T11:47:24.936Z,32.00
2019-05-21T11:48:24.889Z,31.40
2019-05-21T11:49:24.839Z,31.00
2019-05-21T11:50:24.868Z,30.70
2019-05-21T11:51:24.735Z,30.20
2019-05-21T11:52:24.683Z,29.70
2019-05-21T11:53:24.629Z,30.30
2019-05-21T11:54:24.582Z,31.10
2019-05-21T11:55:24.557Z,30.90
2019-05-21T11:56:24.479Z,29.80
2019-05-21T11:57:24.432Z,29.50
2019-05-21T11:58:24.379Z,28.80
2019-05-21T11:59:24.323Z,29.10
2019-05-21T12:00:24.317Z,27.60
2019-05-21T12:01:24.222Z,29.10
2019-05-21T12:02:24.170Z,27.50
2019-05-21T12:03:24.128Z,27.60
2019-05-21T12:04:24.072Z,28.00
2019-05-21T12:05:24.042Z,28.70
2019-05-21T12:06:23.973Z,27.20
2019-05-21T12:07:23.915Z,27.90
2019-05-21T12:08:23.866Z,25.90
2019-05-21T12:09:23.813Z,24.10
2019-05-21T12:10:23.796Z,26.50
2019-05-21T12:11:23.710Z,26.00
2019-05-21T12:12:23.664Z,25.30
2019-05-21T12:13:23.617Z,25.40
2019-05-21T12:14:23.561Z,25.50
2019-05-21T12:15:23.533Z,24.50
2019-05-21T12:16:23.467Z,26.10
2019-05-21T12:17:23.403Z,24.20
2019-05-21T12:18:23.358Z,24.20
2019-05-21T12:19:23.305Z,23.90
2019-05-21T12:20:35.939Z,23.90
2019-05-21T12:21:23.203Z,24.40
2019-05-21T12:22:23.150Z,23.00
2019-05-21T12:23:23.088Z,22.70
2019-05-21T12:24:23.049Z,22.80
2019-05-21T12:25:23.020Z,22.50
2019-05-21T12:26:22.950Z,22.70
2019-05-21T12:27:22.910Z,23.70
2019-05-21T12:28:22.845Z,23.70
2019-05-21T12:29:22.794Z,23.30
2019-05-21T12:30:22.790Z,22.60
2019-05-21T12:31:22.699Z,22.40
2019-05-21T12:32:22.652Z,22.10
2019-05-21T12:33:22.598Z,22.30
2019-05-21T12:34:22.549Z,22.90
2019-05-21T12:35:22.517Z,23.60
2019-05-21T12:36:22.459Z,23.80
2019-05-21T12:37:22.386Z,21.80
2019-05-21T12:38:22.336Z,23.30
2019-05-21T12:39:22.289Z,22.40
2019-05-21T12:40:22.257Z,22.40
2019-05-21T12:41:22.185Z,22.30
2019-05-21T12:42:22.138Z,22.30
2019-05-21T12:43:22.084Z,22.90
2019-05-21T12:44:22.026Z,23.50
2019-05-21T12:45:22.012Z,23.70
2019-05-21T12:46:21.929Z,24.80
2019-05-21T12:47:21.877Z,23.70
2019-05-21T12:48:21.825Z,24.10
2019-05-21T12:49:21.825Z,23.30
2019-05-21T12:50:21.749Z,23.50
2019-05-21T12:51:21.696Z,25.10